Time;durP1;ratioP1;P1;durP2;ratioP2;P2;SDS_P1;SDS_P2;PMS_P1;PMS_P2;Temp;Humidity;BMP_temperature;BMP_pressure;BME280_temperature;BME280_humidity;BME280_pressure;Samples;Min_cycle;Max_cycle;Signal;HPM_P1;HPM_P2
2023/08/22 00:01:48;;;;;;;;;;;25.40;58.10;;;;;;5046745;28;19963;-54
2023/08/22 00:04:13;;;;;;;;;;;25.40;59.20;;;;;;5029039;28;19913;-53
2023/08/22 00:06:38;;;;;;;;;;;25.40;58.70;;;;;;5044382;28;20024;-52
2023/08/22 00:09:04;;;;;;;;;;;25.40;58.50;;;;;;5038864;28;19913;-53
2023/08/22 00:11:30;;;;;;;;;;;25.40;58.60;;;;;;5047251;28;20027;-52
2023/08/22 00:13:55;;;;;;;;;;;25.40;58.40;;;;;;5049766;28;19975;-53
2023/08/22 00:16:23;;;;;;;;;;;25.40;58.30;;;;;;5049435;28;19958;-54
2023/08/22 00:18:48;;;;;;;;;;;25.40;58.60;;;;;;5050326;28;20055;-54
2023/08/22 00:21:14;;;;;;;;;;;25.40;58.60;;;;;;5049953;28;19999;-53
2023/08/22 00:23:39;;;;;;;;;;;25.40;58.60;;;;;;5037912;28;19920;-53
2023/08/22 00:26:05;;;;;;;;;;;25.40;58.80;;;;;;5040790;28;19921;-53
2023/08/22 00:28:30;;;;;;;;;;;25.30;58.80;;;;;;5050467;28;19970;-53
2023/08/22 00:30:55;;;;;;;;;;;25.30;58.80;;;;;;5047600;28;19917;-54
2023/08/22 00:33:21;;;;;;;;;;;25.30;59.00;;;;;;5048386;28;20433;-53
2023/08/22 00:35:47;;;;;;;;;;;25.30;59.00;;;;;;5046536;28;19917;-53
2023/08/22 00:38:13;;;;;;;;;;;25.30;59.00;;;;;;5039723;28;19920;-53
2023/08/22 00:40:39;;;;;;;;;;;25.30;59.00;;;;;;5046602;28;20364;-52
2023/08/22 00:43:04;;;;;;;;;;;25.30;59.00;;;;;;5050556;28;19909;-52
2023/08/22 00:45:30;;;;;;;;;;;25.30;58.90;;;;;;5042623;28;19940;-52
2023/08/22 00:47:55;;;;;;;;;;;25.30;58.90;;;;;;5032868;28;19913;-53
2023/08/22 00:50:21;;;;;;;;;;;25.30;58.90;;;;;;5039530;28;19960;-54
2023/08/22 00:52:46;;;;;;;;;;;25.30;59.10;;;;;;5043604;28;19920;-53
2023/08/22 00:55:13;;;;;;;;;;;25.30;59.30;;;;;;5040472;28;20007;-54
2023/08/22 00:57:38;;;;;;;;;;;25.30;59.80;;;;;;5049934;28;19908;-54
2023/08/22 01:00:06;;;;;;;;;;;25.30;59.10;;;;;;5047151;28;19916;-53
2023/08/22 01:02:31;;;;;;;;;;;25.30;59.10;;;;;;5038979;28;19913;-54
2023/08/22 01:04:57;;;;;;;;;;;25.30;59.00;;;;;;5047806;28;21171;-52
2023/08/22 01:07:22;;;;;;;;;;;25.30;59.00;;;;;;5050402;28;19936;-54
2023/08/22 01:09:53;;;;;;;;;;;25.20;59.30;;;;;;5048023;28;20004;-53
2023/08/22 01:12:37;;;;;;;;;;;25.20;59.20;;;;;;5045339;28;19924;-54
2023/08/22 01:15:06;;;;;;;;;;;25.20;59.10;;;;;;5046056;28;20015;-53
2023/08/22 01:17:31;;;;;;;;;;;25.20;59.20;;;;;;5042660;28;19924;-54
2023/08/22 01:19:57;;;;;;;;;;;25.20;59.30;;;;;;5044890;28;20027;-54
2023/08/22 01:22:25;;;;;;;;;;;25.20;59.30;;;;;;5048086;28;19970;-54
2023/08/22 01:24:51;;;;;;;;;;;25.20;59.30;;;;;;5047657;28;19917;-53
2023/08/22 01:27:16;;;;;;;;;;;25.20;59.30;;;;;;5034803;28;20548;-54
2023/08/22 01:29:44;;;;;;;;;;;25.20;59.30;;;;;;5044513;28;19996;-54
2023/08/22 01:32:13;;;;;;;;;;;25.20;59.30;;;;;;5054957;28;19921;-53
2023/08/22 01:34:38;;;;;;;;;;;25.20;59.30;;;;;;5051982;28;20288;-53
2023/08/22 01:37:04;;;;;;;;;;;25.20;59.30;;;;;;5058674;28;19913;-54
2023/08/22 01:39:29;;;;;;;;;;;25.20;59.30;;;;;;5046562;28;19913;-54
2023/08/22 01:41:55;;;;;;;;;;;25.20;59.30;;;;;;5041870;28;19943;-54
2023/08/22 01:44:20;;;;;;;;;;;25.20;59.30;;;;;;5038598;28;19932;-54
2023/08/22 01:46:46;;;;;;;;;;;25.20;59.40;;;;;;5051713;28;19913;-54
2023/08/22 01:49:11;;;;;;;;;;;25.20;59.60;;;;;;5044766;28;20023;-53
2023/08/22 01:51:37;;;;;;;;;;;25.20;59.50;;;;;;5042854;28;19927;-53
2023/08/22 01:54:02;;;;;;;;;;;25.20;59.70;;;;;;5048873;28;19920;-54
2023/08/22 01:56:28;;;;;;;;;;;25.30;59.80;;;;;;5044528;28;19959;-53
2023/08/22 01:58:53;;;;;;;;;;;25.30;59.90;;;;;;5047127;28;19920;-54
2023/08/22 02:01:19;;;;;;;;;;;25.30;59.50;;;;;;5044400;28;19967;-53
2023/08/22 02:03:46;;;;;;;;;;;25.30;60.20;;;;;;5046801;28;19952;-53
2023/08/22 02:06:11;;;;;;;;;;;25.30;60.00;;;;;;5040615;28;19923;-54
2023/08/22 02:08:38;;;;;;;;;;;25.40;59.40;;;;;;5046225;28;19917;-54
2023/08/22 02:11:03;;;;;;;;;;;25.40;59.30;;;;;;5044079;28;20613;-54
2023/08/22 02:13:29;;;;;;;;;;;25.40;59.30;;;;;;5042500;28;19916;-53
2023/08/22 02:15:54;;;;;;;;;;;25.40;59.40;;;;;;5053256;28;19908;-54
2023/08/22 02:18:20;;;;;;;;;;;25.40;59.90;;;;;;5053998;28;19909;-54
2023/08/22 02:20:45;;;;;;;;;;;25.30;59.80;;;;;;5053983;28;19917;-53
2023/08/22 02:23:11;;;;;;;;;;;25.30;60.00;;;;;;5052033;28;19913;-54
2023/08/22 02:25:36;;;;;;;;;;;25.30;60.30;;;;;;5052790;28;19974;-54
2023/08/22 02:28:02;;;;;;;;;;;25.30;60.10;;;;;;5053892;28;19913;-54
2023/08/22 02:30:27;;;;;;;;;;;25.30;60.50;;;;;;5035898;28;20311;-54
2023/08/22 02:32:53;;;;;;;;;;;25.30;60.30;;;;;;5053637;28;19916;-54
2023/08/22 02:35:19;;;;;;;;;;;25.30;60.80;;;;;;5053938;28;19948;-54
2023/08/22 02:37:45;;;;;;;;;;;25.30;60.60;;;;;;5034844;28;19919;-54
2023/08/22 02:40:10;;;;;;;;;;;25.30;60.60;;;;;;5053638;28;19999;-54
2023/08/22 02:42:36;;;;;;;;;;;25.30;60.70;;;;;;5053501;28;19909;-54
2023/08/22 02:45:02;;;;;;;;;;;25.20;60.60;;;;;;5053634;28;20487;-53
2023/08/22 02:47:28;;;;;;;;;;;25.20;60.70;;;;;;5053512;28;19912;-54
2023/08/22 02:49:53;;;;;;;;;;;25.20;60.60;;;;;;5053529;28;20285;-54
2023/08/22 02:52:18;;;;;;;;;;;25.20;60.60;;;;;;5051511;28;19970;-54
2023/08/22 02:54:44;;;;;;;;;;;25.20;60.60;;;;;;5034812;28;20005;-54
2023/08/22 02:57:10;;;;;;;;;;;25.20;60.40;;;;;;5053292;28;19916;-54
2023/08/22 02:59:35;;;;;;;;;;;25.20;60.40;;;;;;5051542;28;20001;-54
2023/08/22 03:02:01;;;;;;;;;;;25.10;60.20;;;;;;5053202;28;19954;-54
2023/08/22 03:04:26;;;;;;;;;;;25.20;60.50;;;;;;5052417;28;19917;-54
2023/08/22 03:06:52;;;;;;;;;;;25.20;60.40;;;;;;5052303;28;19913;-54
2023/08/22 03:09:17;;;;;;;;;;;25.20;60.40;;;;;;5052714;28;19909;-54
2023/08/22 03:11:43;;;;;;;;;;;25.10;60.40;;;;;;5052926;28;19912;-54
2023/08/22 03:14:08;;;;;;;;;;;25.10;60.40;;;;;;5052651;28;19920;-54
2023/08/22 03:16:34;;;;;;;;;;;25.10;60.30;;;;;;5051662;28;20292;-53
2023/08/22 03:18:59;;;;;;;;;;;25.10;60.20;;;;;;5051617;28;19913;-54
2023/08/22 03:21:24;;;;;;;;;;;25.10;60.10;;;;;;5052816;28;19982;-53
2023/08/22 03:23:50;;;;;;;;;;;25.10;60.10;;;;;;5051659;28;19916;-54
2023/08/22 03:26:15;;;;;;;;;;;25.20;60.20;;;;;;5052021;28;20003;-54
2023/08/22 03:28:41;;;;;;;;;;;25.10;60.20;;;;;;5052667;28;19909;-53
2023/08/22 03:31:06;;;;;;;;;;;25.10;60.10;;;;;;5048652;28;19924;-53
2023/08/22 03:33:32;;;;;;;;;;;25.10;60.10;;;;;;5052539;28;20007;-54
2023/08/22 03:35:57;;;;;;;;;;;25.10;60.10;;;;;;5052692;28;19917;-54
2023/08/22 03:38:23;;;;;;;;;;;25.10;60.20;;;;;;5050456;28;19913;-54
2023/08/22 03:40:49;;;;;;;;;;;25.10;60.10;;;;;;5067930;28;19908;-53
2023/08/22 03:43:15;;;;;;;;;;;25.10;60.20;;;;;;5052486;28;19909;-54
2023/08/22 03:45:41;;;;;;;;;;;25.10;60.00;;;;;;5045444;28;19920;-54
2023/08/22 03:48:07;;;;;;;;;;;25.10;60.00;;;;;;5031207;28;19913;-53
2023/08/22 03:50:32;;;;;;;;;;;25.00;60.00;;;;;;5042380;28;19912;-54
2023/08/22 03:52:58;;;;;;;;;;;25.00;59.90;;;;;;5046500;28;19916;-54
2023/08/22 03:55:23;;;;;;;;;;;25.10;59.80;;;;;;5050422;28;20010;-54
2023/08/22 03:57:49;;;;;;;;;;;25.10;59.90;;;;;;5052297;28;19909;-54
2023/08/22 04:00:14;;;;;;;;;;;25.10;59.80;;;;;;5052433;28;19920;-54
2023/08/22 04:02:40;;;;;;;;;;;25.10;59.90;;;;;;5051243;28;19912;-53
2023/08/22 04:05:06;;;;;;;;;;;25.10;60.00;;;;;;5044971;28;20296;-53
2023/08/22 04:07:31;;;;;;;;;;;25.00;59.90;;;;;;5039357;28;19917;-54
2023/08/22 04:09:57;;;;;;;;;;;25.00;60.00;;;;;;5063219;28;19921;-54
2023/08/22 04:12:22;;;;;;;;;;;25.00;60.00;;;;;;5052061;28;19929;-54
2023/08/22 04:14:48;;;;;;;;;;;25.00;60.00;;;;;;5051796;28;20304;-53
2023/08/22 04:17:13;;;;;;;;;;;25.00;60.00;;;;;;5052113;28;20317;-54
2023/08/22 04:19:39;;;;;;;;;;;25.00;60.70;;;;;;5051936;28;20284;-53
2023/08/22 04:22:04;;;;;;;;;;;25.00;59.90;;;;;;5050190;28;20013;-53
2023/08/22 04:24:30;;;;;;;;;;;25.00;59.90;;;;;;5051160;28;19976;-54
2023/08/22 04:26:56;;;;;;;;;;;25.00;59.90;;;;;;5052007;28;19940;-54
2023/08/22 04:29:21;;;;;;;;;;;25.00;59.90;;;;;;5051885;28;19923;-54
2023/08/22 04:31:47;;;;;;;;;;;25.00;59.90;;;;;;5033351;28;19924;-54
2023/08/22 04:34:12;;;;;;;;;;;25.00;60.00;;;;;;5051865;28;19913;-53
2023/08/22 04:36:38;;;;;;;;;;;25.00;60.00;;;;;;5050671;28;19913;-54
2023/08/22 04:39:03;;;;;;;;;;;24.90;59.80;;;;;;5051893;28;19948;-54
2023/08/22 04:41:29;;;;;;;;;;;25.00;59.90;;;;;;5051827;28;19909;-54
2023/08/22 04:43:54;;;;;;;;;;;24.90;60.00;;;;;;5051813;28;19908;-54
2023/08/22 04:46:20;;;;;;;;;;;25.00;60.00;;;;;;5051765;28;19909;-54
2023/08/22 04:48:45;;;;;;;;;;;24.90;59.80;;;;;;5043715;28;19917;-54
2023/08/22 04:51:10;;;;;;;;;;;24.90;60.00;;;;;;5054214;28;19916;-54
2023/08/22 04:53:36;;;;;;;;;;;24.90;59.90;;;;;;5055593;28;19916;-54
2023/08/22 04:56:01;;;;;;;;;;;24.90;60.00;;;;;;5054699;28;19913;-54
2023/08/22 04:58:27;;;;;;;;;;;24.90;60.00;;;;;;5037646;28;19912;-53
2023/08/22 05:00:52;;;;;;;;;;;24.90;60.00;;;;;;5055350;28;20277;-54
2023/08/22 05:03:21;;;;;;;;;;;24.90;59.90;;;;;;5048777;28;19913;-54
2023/08/22 05:05:47;;;;;;;;;;;24.90;60.00;;;;;;5053777;28;19917;-53
2023/08/22 05:08:12;;;;;;;;;;;24.90;60.00;;;;;;5053119;28;19917;-53
2023/08/22 05:10:37;;;;;;;;;;;24.90;60.00;;;;;;5055198;28;19913;-54
2023/08/22 05:13:03;;;;;;;;;;;24.90;60.00;;;;;;5054917;28;19920;-53
2023/08/22 05:15:28;;;;;;;;;;;24.90;60.00;;;;;;5055119;28;19913;-53
2023/08/22 05:17:54;;;;;;;;;;;24.90;60.00;;;;;;5055126;28;20331;-54
2023/08/22 05:20:20;;;;;;;;;;;24.90;60.00;;;;;;5053895;28;19920;-54
2023/08/22 05:22:45;;;;;;;;;;;24.90;60.00;;;;;;5054443;28;19908;-54
2023/08/22 05:25:11;;;;;;;;;;;24.90;59.90;;;;;;5047851;28;19909;-54
2023/08/22 05:27:36;;;;;;;;;;;24.90;60.00;;;;;;5035083;28;19920;-53
2023/08/22 05:30:02;;;;;;;;;;;24.90;60.10;;;;;;5034923;28;19913;-53
2023/08/22 05:32:28;;;;;;;;;;;24.90;60.10;;;;;;5033558;28;20365;-53
2023/08/22 05:34:53;;;;;;;;;;;24.90;60.10;;;;;;5034780;28;20361;-54
2023/08/22 05:37:19;;;;;;;;;;;24.90;60.10;;;;;;5052856;28;19913;-54
2023/08/22 05:39:44;;;;;;;;;;;24.90;60.10;;;;;;5054484;28;19997;-54
2023/08/22 05:42:09;;;;;;;;;;;24.90;60.10;;;;;;5054445;28;19909;-54
2023/08/22 05:44:35;;;;;;;;;;;24.90;60.90;;;;;;5054444;28;20382;-54
2023/08/22 05:47:02;;;;;;;;;;;24.90;60.10;;;;;;5054518;28;20007;-54
2023/08/22 05:49:27;;;;;;;;;;;24.90;60.10;;;;;;5054444;28;19912;-53
2023/08/22 05:52:03;;;;;;;;;;;24.80;60.00;;;;;;5040952;28;19917;-53
2023/08/22 05:54:28;;;;;;;;;;;24.90;60.10;;;;;;5034776;28;19910;-54
2023/08/22 05:56:54;;;;;;;;;;;24.90;60.10;;;;;;5054133;28;19916;-54
2023/08/22 05:59:19;;;;;;;;;;;24.90;60.00;;;;;;5054085;28;19958;-54
2023/08/22 06:01:44;;;;;;;;;;;24.80;60.00;;;;;;5052119;28;19908;-54
2023/08/22 06:04:10;;;;;;;;;;;24.90;60.10;;;;;;5051582;28;19913;-54
2023/08/22 06:06:35;;;;;;;;;;;24.90;60.20;;;;;;5053009;28;19923;-54
2023/08/22 06:09:01;;;;;;;;;;;24.90;60.10;;;;;;5052815;28;19913;-54
2023/08/22 06:11:26;;;;;;;;;;;24.90;60.10;;;;;;5036938;28;20373;-53
2023/08/22 06:13:53;;;;;;;;;;;24.80;60.00;;;;;;5041274;28;19943;-54
2023/08/22 06:16:18;;;;;;;;;;;24.80;60.00;;;;;;5036269;28;19957;-54
2023/08/22 06:18:44;;;;;;;;;;;24.90;60.20;;;;;;5054111;28;19913;-53
2023/08/22 06:21:09;;;;;;;;;;;24.90;60.20;;;;;;5052961;28;19948;-54
2023/08/22 06:23:34;;;;;;;;;;;24.90;60.20;;;;;;5053898;28;19908;-54
2023/08/22 06:26:00;;;;;;;;;;;24.80;60.10;;;;;;5053145;28;20364;-54
2023/08/22 06:28:25;;;;;;;;;;;24.80;60.20;;;;;;5053694;28;20395;-53
2023/08/22 06:30:51;;;;;;;;;;;24.80;60.20;;;;;;5053623;28;19916;-53
2023/08/22 06:33:16;;;;;;;;;;;24.80;60.20;;;;;;5053769;28;19996;-55
2023/08/22 06:35:45;;;;;;;;;;;24.80;60.30;;;;;;5035601;28;19920;-54
2023/08/22 06:38:10;;;;;;;;;;;24.80;60.30;;;;;;5052468;28;20042;-54
2023/08/22 06:40:36;;;;;;;;;;;24.80;60.20;;;;;;5053619;28;20003;-55
2023/08/22 06:43:01;;;;;;;;;;;24.80;60.50;;;;;;5053614;28;19959;-54
2023/08/22 06:45:27;;;;;;;;;;;24.80;60.50;;;;;;5053621;28;19919;-54
2023/08/22 06:47:52;;;;;;;;;;;24.80;60.40;;;;;;5053281;28;20266;-54
2023/08/22 06:50:18;;;;;;;;;;;24.80;60.30;;;;;;5053450;28;20296;-54
2023/08/22 06:52:43;;;;;;;;;;;24.80;60.50;;;;;;5051491;28;19959;-54
2023/08/22 06:55:09;;;;;;;;;;;24.80;60.40;;;;;;5051961;28;19913;-54
2023/08/22 06:57:36;;;;;;;;;;;24.80;60.40;;;;;;5052515;28;22386;-53
2023/08/22 07:00:13;;;;;;;;;;;24.80;60.60;;;;;;5053271;28;19987;-54
2023/08/22 07:02:38;;;;;;;;;;;24.80;60.60;;;;;;5059204;28;19909;-54
2023/08/22 07:05:04;;;;;;;;;;;24.80;60.60;;;;;;5052209;28;19913;-54
2023/08/22 07:07:29;;;;;;;;;;;24.80;60.60;;;;;;5052141;28;20020;-53
2023/08/22 07:09:54;;;;;;;;;;;24.80;60.50;;;;;;5035142;28;19909;-54
2023/08/22 07:12:20;;;;;;;;;;;24.90;60.50;;;;;;5035084;28;19934;-54
2023/08/22 07:14:45;;;;;;;;;;;24.80;60.50;;;;;;5029819;28;19924;-53
2023/08/22 07:17:11;;;;;;;;;;;24.80;60.40;;;;;;5051431;28;19913;-54
2023/08/22 07:19:36;;;;;;;;;;;24.80;60.40;;;;;;5068185;28;19920;-54
2023/08/22 07:22:02;;;;;;;;;;;24.80;60.40;;;;;;5049517;28;19924;-54
2023/08/22 07:24:27;;;;;;;;;;;24.80;60.30;;;;;;5033585;28;19921;-53
2023/08/22 07:26:53;;;;;;;;;;;24.80;60.30;;;;;;5032957;28;19958;-54
2023/08/22 07:29:21;;;;;;;;;;;24.80;60.30;;;;;;5032789;28;19936;-54
2023/08/22 07:31:47;;;;;;;;;;;24.80;60.30;;;;;;5032575;28;19924;-54
2023/08/22 07:34:12;;;;;;;;;;;24.80;60.30;;;;;;5047691;28;20280;-54
2023/08/22 07:36:37;;;;;;;;;;;24.70;60.20;;;;;;5052583;28;20236;-54
2023/08/22 07:39:03;;;;;;;;;;;24.80;60.30;;;;;;5051122;28;20364;-54
2023/08/22 07:41:28;;;;;;;;;;;24.80;60.40;;;;;;5052611;28;20322;-54
2023/08/22 07:43:54;;;;;;;;;;;24.80;60.30;;;;;;5052644;28;19909;-52
2023/08/22 07:46:19;;;;;;;;;;;24.80;60.30;;;;;;5052452;28;19959;-54
2023/08/22 07:48:45;;;;;;;;;;;24.80;60.40;;;;;;5052712;28;19935;-54
2023/08/22 07:51:11;;;;;;;;;;;24.80;60.30;;;;;;5050779;28;19919;-54
2023/08/22 07:53:36;;;;;;;;;;;24.80;60.50;;;;;;5037535;28;19960;-54
2023/08/22 07:56:01;;;;;;;;;;;24.80;60.60;;;;;;5032999;28;20281;-53
2023/08/22 07:58:27;;;;;;;;;;;24.80;60.60;;;;;;5032502;28;19917;-54
2023/08/22 08:00:52;;;;;;;;;;;24.80;60.40;;;;;;5032389;28;19909;-53
2023/08/22 08:03:18;;;;;;;;;;;24.80;60.40;;;;;;5032316;28;20365;-54
2023/08/22 08:05:44;;;;;;;;;;;24.80;60.20;;;;;;5044616;28;19913;-54
2023/08/22 08:08:09;;;;;;;;;;;24.80;60.30;;;;;;5049994;28;19967;-53
2023/08/22 08:10:37;;;;;;;;;;;24.80;60.30;;;;;;5052060;28;20082;-54
2023/08/22 08:13:03;;;;;;;;;;;24.80;60.40;;;;;;5051688;28;19913;-54
2023/08/22 08:15:28;;;;;;;;;;;24.80;60.50;;;;;;5052137;28;19982;-54
2023/08/22 08:17:54;;;;;;;;;;;24.80;60.60;;;;;;5067547;28;20385;-54
2023/08/22 08:20:19;;;;;;;;;;;24.80;60.60;;;;;;5047578;28;19917;-54
2023/08/22 08:22:45;;;;;;;;;;;24.80;60.60;;;;;;5050600;28;19967;-53
2023/08/22 08:25:11;;;;;;;;;;;24.80;60.60;;;;;;5053814;28;20379;-54
2023/08/22 08:27:36;;;;;;;;;;;24.80;60.60;;;;;;5055917;28;20399;-54
2023/08/22 08:30:05;;;;;;;;;;;24.80;60.60;;;;;;5056124;28;20459;-54
2023/08/22 08:32:31;;;;;;;;;;;24.80;60.90;;;;;;5055944;28;19970;-54
2023/08/22 08:34:56;;;;;;;;;;;24.80;61.10;;;;;;5056026;28;19912;-54
2023/08/22 08:37:22;;;;;;;;;;;24.80;61.20;;;;;;5054625;28;19932;-54
2023/08/22 08:39:47;;;;;;;;;;;24.80;61.30;;;;;;5054070;28;19917;-53
2023/08/22 08:42:13;;;;;;;;;;;24.80;61.40;;;;;;5055951;28;19962;-55
2023/08/22 08:44:38;;;;;;;;;;;24.90;61.50;;;;;;5054531;28;19915;-53
2023/08/22 08:47:04;;;;;;;;;;;24.80;61.20;;;;;;5055887;28;19955;-54
2023/08/22 08:49:30;;;;;;;;;;;24.90;61.20;;;;;;5054406;28;19909;-54
2023/08/22 08:51:56;;;;;;;;;;;24.90;61.30;;;;;;5055547;28;20125;-53
2023/08/22 08:54:22;;;;;;;;;;;24.90;61.50;;;;;;5053488;28;20570;-54
2023/08/22 08:56:48;;;;;;;;;;;25.00;61.20;;;;;;5055687;28;20391;-55
2023/08/22 08:59:14;;;;;;;;;;;25.00;61.80;;;;;;5055671;28;19909;-54
2023/08/22 09:01:40;;;;;;;;;;;25.00;61.80;;;;;;5055421;28;19999;-54
2023/08/22 09:04:06;;;;;;;;;;;25.10;62.00;;;;;;5054208;28;19908;-54
2023/08/22 09:06:31;;;;;;;;;;;25.20;61.80;;;;;;5050074;28;20372;-54
2023/08/22 09:09:12;;;;;;;;;;;25.20;61.70;;;;;;5054075;28;19916;-54
2023/08/22 09:11:41;;;;;;;;;;;25.20;61.10;;;;;;5061939;28;19916;-54
2023/08/22 09:14:07;;;;;;;;;;;25.10;61.50;;;;;;5055139;28;20023;-55
2023/08/22 09:16:32;;;;;;;;;;;25.10;62.30;;;;;;5070553;28;19920;-54
2023/08/22 09:18:59;;;;;;;;;;;25.10;61.90;;;;;;5049705;28;19970;-55
2023/08/22 09:21:25;;;;;;;;;;;25.20;61.60;;;;;;5052808;28;20375;-54
2023/08/22 09:23:50;;;;;;;;;;;25.20;61.30;;;;;;5053437;28;19909;-54
2023/08/22 09:26:22;;;;;;;;;;;25.20;60.90;;;;;;5054421;28;19919;-54
2023/08/22 09:28:48;;;;;;;;;;;25.20;60.80;;;;;;5053763;28;20308;-53
2023/08/22 09:31:23;;;;;;;;;;;25.30;60.30;;;;;;5054651;28;19959;-54
2023/08/22 09:33:49;;;;;;;;;;;25.30;60.00;;;;;;5049926;28;19912;-54
2023/08/22 09:36:19;;;;;;;;;;;25.20;59.90;;;;;;5050299;28;20294;-54
2023/08/22 09:38:52;;;;;;;;;;;25.20;60.10;;;;;;5046069;28;20000;-53
2023/08/22 09:41:27;;;;;;;;;;;25.20;59.90;;;;;;5043690;28;20311;-54
2023/08/22 09:43:54;;;;;;;;;;;25.20;60.10;;;;;;5055475;28;19917;-54
2023/08/22 09:46:20;;;;;;;;;;;25.20;60.30;;;;;;5048284;28;19932;-54
2023/08/22 09:48:46;;;;;;;;;;;25.10;60.00;;;;;;5034704;28;19972;-54
2023/08/22 09:51:12;;;;;;;;;;;25.10;60.00;;;;;;5037130;28;19917;-54
2023/08/22 09:53:38;;;;;;;;;;;25.20;60.20;;;;;;5051473;28;19943;-54
2023/08/22 09:56:03;;;;;;;;;;;25.20;60.20;;;;;;5053662;28;19963;-53
2023/08/22 09:58:29;;;;;;;;;;;25.10;60.20;;;;;;5052901;28;19916;-54
2023/08/22 10:00:55;;;;;;;;;;;25.10;60.50;;;;;;5053012;28;20349;-54
2023/08/22 10:03:21;;;;;;;;;;;25.10;60.40;;;;;;5052862;28;19928;-54
2023/08/22 10:05:49;;;;;;;;;;;25.10;60.40;;;;;;5052866;28;19916;-54
2023/08/22 10:08:15;;;;;;;;;;;25.10;60.30;;;;;;5054172;28;19909;-54
2023/08/22 10:10:41;;;;;;;;;;;25.10;60.30;;;;;;5054310;28;20281;-54
2023/08/22 10:13:06;;;;;;;;;;;25.10;60.60;;;;;;5053815;28;19917;-53
2023/08/22 10:15:32;;;;;;;;;;;25.20;60.50;;;;;;5054092;28;19919;-53
2023/08/22 10:17:57;;;;;;;;;;;25.20;61.00;;;;;;5054093;28;19917;-54
2023/08/22 10:20:23;;;;;;;;;;;25.20;61.10;;;;;;5051885;28;19908;-54
2023/08/22 10:22:51;;;;;;;;;;;25.30;61.30;;;;;;5032734;28;19915;-54
2023/08/22 10:25:16;;;;;;;;;;;25.30;61.10;;;;;;5034476;28;19956;-54
2023/08/22 10:27:46;;;;;;;;;;;25.30;61.00;;;;;;5036743;28;19960;-54
2023/08/22 10:30:15;;;;;;;;;;;25.40;61.10;;;;;;5047358;28;19942;-54
2023/08/22 10:32:41;;;;;;;;;;;25.40;60.80;;;;;;5041541;28;19963;-54
2023/08/22 10:35:20;;;;;;;;;;;25.50;60.70;;;;;;5053627;28;19912;-54
2023/08/22 10:37:49;;;;;;;;;;;25.40;60.60;;;;;;5066492;28;19951;-54
2023/08/22 10:40:20;;;;;;;;;;;25.50;61.00;;;;;;5051993;28;20365;-53
2023/08/22 10:42:49;;;;;;;;;;;25.50;60.70;;;;;;5053382;28;20337;-54
2023/08/22 10:45:15;;;;;;;;;;;25.50;60.60;;;;;;5053346;28;19909;-54
2023/08/22 10:47:41;;;;;;;;;;;25.50;60.40;;;;;;5052412;28;20007;-54
2023/08/22 10:50:09;;;;;;;;;;;25.50;60.40;;;;;;5058605;28;20035;-54
2023/08/22 10:52:35;;;;;;;;;;;25.60;60.40;;;;;;5053452;28;20408;-54
2023/08/22 10:55:10;;;;;;;;;;;25.60;60.10;;;;;;5044860;28;19958;-54
2023/08/22 10:57:46;;;;;;;;;;;25.60;60.20;;;;;;5032063;28;20362;-54
2023/08/22 11:00:21;;;;;;;;;;;25.60;60.20;;;;;;5033259;28;20415;-54
2023/08/22 11:02:51;;;;;;;;;;;25.60;60.40;;;;;;5032008;28;19987;-54
2023/08/22 11:05:16;;;;;;;;;;;25.60;60.10;;;;;;5038302;28;20343;-55
2023/08/22 11:07:42;;;;;;;;;;;25.60;60.10;;;;;;5051738;28;19917;-54
2023/08/22 11:10:11;;;;;;;;;;;25.60;60.00;;;;;;5053182;28;19954;-54
2023/08/22 11:12:38;;;;;;;;;;;25.70;60.00;;;;;;5051650;28;19921;-54
2023/08/22 11:15:04;;;;;;;;;;;25.70;59.60;;;;;;5052873;28;19928;-54
2023/08/22 11:17:29;;;;;;;;;;;25.70;59.60;;;;;;5052759;28;19916;-54
2023/08/22 11:19:55;;;;;;;;;;;25.70;59.60;;;;;;5049860;28;19913;-54
2023/08/22 11:22:21;;;;;;;;;;;25.70;59.50;;;;;;5052819;28;19990;-54
2023/08/22 11:24:47;;;;;;;;;;;25.70;59.60;;;;;;5052108;28;20273;-54
2023/08/22 11:27:12;;;;;;;;;;;25.70;59.60;;;;;;5052866;28;19912;-53
2023/08/22 11:29:44;;;;;;;;;;;25.90;59.70;;;;;;5050739;28;20335;-54
2023/08/22 11:32:20;;;;;;;;;;;25.90;59.70;;;;;;5052666;28;19913;-54
2023/08/22 11:34:46;;;;;;;;;;;25.90;59.40;;;;;;5052655;28;20438;-54
2023/08/22 11:37:12;;;;;;;;;;;25.90;59.00;;;;;;5051394;28;19912;-54
2023/08/22 11:39:37;;;;;;;;;;;25.90;59.00;;;;;;5052537;28;19912;-54
2023/08/22 11:42:03;;;;;;;;;;;25.80;59.20;;;;;;5052815;28;19909;-54
2023/08/22 11:44:28;;;;;;;;;;;25.90;59.00;;;;;;5045398;28;19917;-54
2023/08/22 11:46:54;;;;;;;;;;;25.90;59.10;;;;;;5044940;28;19936;-54
2023/08/22 11:49:19;;;;;;;;;;;25.80;59.10;;;;;;5052376;28;20403;-55
2023/08/22 11:51:45;;;;;;;;;;;25.80;59.10;;;;;;5050509;28;19923;-54
2023/08/22 11:54:21;;;;;;;;;;;25.80;58.80;;;;;;5066509;28;19934;-53
2023/08/22 11:56:47;;;;;;;;;;;25.80;58.80;;;;;;5032381;28;19956;-54
2023/08/22 11:59:12;;;;;;;;;;;25.80;58.50;;;;;;5030419;28;19913;-54
2023/08/22 12:01:38;;;;;;;;;;;25.90;58.50;;;;;;5033072;28;19921;-53
2023/08/22 12:04:05;;;;;;;;;;;25.80;58.70;;;;;;5049859;28;19912;-54
2023/08/22 12:06:31;;;;;;;;;;;25.80;58.70;;;;;;5050930;28;19948;-54
2023/08/22 12:08:57;;;;;;;;;;;25.80;58.80;;;;;;5052180;28;20303;-55
2023/08/22 12:11:23;;;;;;;;;;;25.90;59.00;;;;;;5067427;28;20436;-54
2023/08/22 12:13:49;;;;;;;;;;;25.90;58.70;;;;;;5052003;28;19927;-54
2023/08/22 12:16:14;;;;;;;;;;;25.90;58.90;;;;;;5052185;28;19909;-54
2023/08/22 12:18:41;;;;;;;;;;;25.90;59.10;;;;;;5050860;28;19913;-54
2023/08/22 12:21:06;;;;;;;;;;;26.00;59.00;;;;;;5050128;28;19921;-55
2023/08/22 12:23:34;;;;;;;;;;;26.00;58.90;;;;;;5051428;28;20016;-54
2023/08/22 12:26:00;;;;;;;;;;;26.10;58.70;;;;;;5051349;28;19999;-54
2023/08/22 12:28:26;;;;;;;;;;;26.10;58.60;;;;;;5051932;28;19944;-55
2023/08/22 12:30:51;;;;;;;;;;;26.10;59.00;;;;;;5051810;28;20267;-55
2023/08/22 12:33:17;;;;;;;;;;;26.10;59.20;;;;;;5051953;28;19920;-53
2023/08/22 12:35:43;;;;;;;;;;;26.20;58.60;;;;;;5050017;28;20295;-54
2023/08/22 12:38:08;;;;;;;;;;;26.10;59.00;;;;;;5051967;28;19916;-55
2023/08/22 12:40:36;;;;;;;;;;;26.10;58.70;;;;;;5051812;28;20281;-55
2023/08/22 12:43:02;;;;;;;;;;;26.10;58.50;;;;;;5051707;28;19935;-57
2023/08/22 12:45:27;;;;;;;;;;;26.10;58.60;;;;;;5049843;28;19916;-55
2023/08/22 12:47:53;;;;;;;;;;;26.20;58.80;;;;;;5050962;28;19913;-54
2023/08/22 12:50:18;;;;;;;;;;;26.20;58.50;;;;;;5050582;28;19913;-57
2023/08/22 12:52:44;;;;;;;;;;;26.20;58.70;;;;;;5051906;28;19919;-57
2023/08/22 12:55:09;;;;;;;;;;;26.30;58.20;;;;;;5051031;28;19992;-56
2023/08/22 12:57:35;;;;;;;;;;;26.40;58.00;;;;;;5051645;28;19917;-54
2023/08/22 13:00:02;;;;;;;;;;;26.30;58.10;;;;;;5050586;28;19909;-55
2023/08/22 13:02:27;;;;;;;;;;;26.30;58.50;;;;;;5031768;28;20013;-55
2023/08/22 13:04:53;;;;;;;;;;;26.30;58.10;;;;;;5031775;28;19952;-54
2023/08/22 13:07:18;;;;;;;;;;;26.40;57.30;;;;;;5047913;28;19913;-55
2023/08/22 13:09:44;;;;;;;;;;;26.40;56.90;;;;;;5051115;28;20377;-54
2023/08/22 13:12:09;;;;;;;;;;;26.40;57.40;;;;;;5055262;28;19958;-54
2023/08/22 13:14:35;;;;;;;;;;;26.40;55.10;;;;;;5055036;28;20021;-54
2023/08/22 13:17:01;;;;;;;;;;;26.40;54.60;;;;;;5070632;28;19915;-55
2023/08/22 13:19:26;;;;;;;;;;;26.40;54.90;;;;;;5068768;28;19916;-54
2023/08/22 13:21:52;;;;;;;;;;;26.40;55.70;;;;;;5053719;28;20403;-54
2023/08/22 13:24:17;;;;;;;;;;;26.50;56.60;;;;;;5054646;28;19999;-53
2023/08/22 13:26:43;;;;;;;;;;;26.60;55.40;;;;;;5054617;28;19909;-55
2023/08/22 13:29:08;;;;;;;;;;;26.50;54.20;;;;;;5053730;28;20419;-55
2023/08/22 13:31:36;;;;;;;;;;;26.50;54.80;;;;;;5050659;28;19916;-54
2023/08/22 13:34:02;;;;;;;;;;;26.50;55.90;;;;;;5054108;28;19913;-54
2023/08/22 13:36:28;;;;;;;;;;;26.50;55.80;;;;;;5053210;28;19987;-55
2023/08/22 13:38:54;;;;;;;;;;;26.50;56.20;;;;;;5053582;28;19913;-54
2023/08/22 13:41:19;;;;;;;;;;;26.60;55.10;;;;;;5044013;28;19914;-54
2023/08/22 13:43:45;;;;;;;;;;;26.50;54.40;;;;;;5034740;28;20289;-54
2023/08/22 13:46:10;;;;;;;;;;;26.60;55.40;;;;;;5033381;28;19959;-54
2023/08/22 13:48:36;;;;;;;;;;;26.60;56.10;;;;;;5034550;28;19910;-54
2023/08/22 13:51:02;;;;;;;;;;;26.60;55.50;;;;;;5037128;28;19913;-54
2023/08/22 13:53:31;;;;;;;;;;;26.70;54.20;;;;;;5034834;28;19924;-55
2023/08/22 13:55:57;;;;;;;;;;;26.60;53.80;;;;;;5033758;28;19916;-54
2023/08/22 13:58:22;;;;;;;;;;;26.60;55.00;;;;;;5034237;28;19913;-55
2023/08/22 14:00:47;;;;;;;;;;;26.70;54.60;;;;;;5034227;28;20000;-54
2023/08/22 14:03:13;;;;;;;;;;;26.60;54.30;;;;;;5034683;28;19986;-54
2023/08/22 14:05:38;;;;;;;;;;;26.60;54.40;;;;;;5040095;28;19913;-54
2023/08/22 14:08:05;;;;;;;;;;;26.60;52.90;;;;;;5054409;28;19956;-54
2023/08/22 14:10:31;;;;;;;;;;;26.60;52.20;;;;;;5054147;28;19995;-54